Time;durP1;ratioP1;P1;durP2;ratioP2;P2;SDS_P1;SDS_P2;PMS_P1;PMS_P2;Temp;Humidity;BMP_temperature;BMP_pressure;BME280_temperature;BME280_humidity;BME280_pressure;Samples;Min_cycle;Max_cycle;Signal;HPM_P1;HPM_P2
2022/01/26 00:06:35;;;;;;;16.73;12.43;;;6.10;86.30;;;;;;894942;158;27384;-81
2022/01/26 00:09:02;;;;;;;18.23;12.10;;;6.10;86.20;;;;;;894942;158;27501;-79
2022/01/26 00:11:31;;;;;;;14.63;11.00;;;6.10;86.10;;;;;;893271;158;27504;-80
2022/01/26 00:13:55;;;;;;;18.30;11.47;;;6.10;86.00;;;;;;894753;158;27851;-82
2022/01/26 00:16:26;;;;;;;16.30;11.87;;;6.00;85.90;;;;;;893753;156;27405;-80
2022/01/26 00:18:49;;;;;;;18.03;11.80;;;6.10;86.00;;;;;;893586;158;27368;-81
2022/01/26 00:21:26;;;;;;;16.27;11.27;;;6.10;86.10;;;;;;893180;158;27482;-82
2022/01/26 00:24:07;;;;;;;17.30;12.03;;;6.10;86.00;;;;;;891742;158;27839;-73
2022/01/26 00:27:07;;;;;;;18.57;12.47;;;6.10;86.00;;;;;;893628;158;27541;-82
2022/01/26 00:29:07;;;;;;;18.37;11.83;;;6.10;86.00;;;;;;882181;158;27309;-82
2022/01/26 00:31:13;;;;;;;16.37;11.60;;;6.10;86.00;;;;;;889880;158;27628;-80
2022/01/26 00:39:09;;;;;;;19.27;11.30;;;6.00;85.80;;;;;;893980;158;27429;-74
2022/01/26 00:41:37;;;;;;;16.30;12.07;;;6.00;85.80;;;;;;895242;158;27473;-81
2022/01/26 00:44:02;;;;;;;16.23;11.60;;;6.00;86.00;;;;;;894233;158;27483;-81
2022/01/26 00:46:28;;;;;;;19.67;12.20;;;6.00;86.00;;;;;;895572;158;27346;-78
2022/01/26 00:48:55;;;;;;;18.23;11.30;;;6.00;86.10;;;;;;895514;157;27433;-74
2022/01/26 00:51:22;;;;;;;17.00;10.87;;;6.00;86.10;;;;;;893378;158;27927;-81
2022/01/26 00:53:53;;;;;;;17.77;11.80;;;6.10;86.10;;;;;;894577;158;27352;-82
2022/01/26 00:56:14;;;;;;;18.13;12.27;;;6.10;86.20;;;;;;892537;158;27313;-81
2022/01/26 00:58:41;;;;;;;16.30;11.27;;;6.00;86.00;;;;;;894149;158;27473;-80
2022/01/26 01:01:08;;;;;;;18.20;12.37;;;6.10;86.10;;;;;;893667;158;27508;-74
2022/01/26 01:03:36;;;;;;;16.47;11.70;;;6.10;86.00;;;;;;895878;158;27416;-82
2022/01/26 01:06:06;;;;;;;18.30;11.40;;;6.10;86.00;;;;;;894041;158;27410;-81
2022/01/26 01:08:27;;;;;;;15.07;11.73;;;6.10;86.00;;;;;;893247;158;27461;-79
2022/01/26 01:10:54;;;;;;;17.10;11.47;;;6.10;86.00;;;;;;895686;158;27378;-79
2022/01/26 01:13:23;;;;;;;14.87;10.43;;;6.10;86.00;;;;;;894313;158;27310;-77
2022/01/26 01:15:47;;;;;;;13.43;11.03;;;6.10;86.00;;;;;;893840;158;27547;-79
2022/01/26 01:26:36;;;;;;;15.87;10.50;;;6.10;85.80;;;;;;894488;158;27447;-82
2022/01/26 01:31:30;;;;;;;17.43;11.07;;;6.00;85.70;;;;;;893237;158;27510;-77
2022/01/26 01:33:46;;;;;;;16.80;12.20;;;6.00;85.80;;;;;;892240;158;27507;-78
2022/01/26 01:36:11;;;;;;;16.67;11.27;;;5.90;85.90;;;;;;893594;158;27425;-82
2022/01/26 01:38:40;;;;;;;15.30;10.33;;;5.90;86.10;;;;;;894746;158;27524;-80
2022/01/26 01:41:03;;;;;;;13.87;10.67;;;5.90;86.30;;;;;;893872;158;27457;-82
2022/01/26 01:43:29;;;;;;;15.60;10.77;;;5.90;86.40;;;;;;893594;158;27447;-81
2022/01/26 01:45:56;;;;;;;15.30;10.43;;;6.00;86.60;;;;;;895158;158;27346;-79
2022/01/26 01:48:23;;;;;;;14.00;9.83;;;6.00;86.60;;;;;;895721;158;27563;-80
2022/01/26 01:50:51;;;;;;;17.27;11.53;;;6.00;86.60;;;;;;894850;158;27480;-82
2022/01/26 01:53:16;;;;;;;15.67;11.13;;;6.10;86.60;;;;;;893989;158;27892;-82
2022/01/26 01:55:42;;;;;;;16.20;11.57;;;6.10;86.50;;;;;;892899;158;27397;-82
2022/01/26 01:58:09;;;;;;;16.73;11.07;;;6.10;86.40;;;;;;894327;158;27513;-75
2022/01/26 02:00:35;;;;;;;15.97;11.70;;;6.10;86.30;;;;;;894775;158;27506;-75
2022/01/26 02:03:02;;;;;;;18.87;11.40;;;6.10;86.30;;;;;;895382;158;27515;-83
2022/01/26 02:05:28;;;;;;;15.43;11.07;;;6.10;86.10;;;;;;894389;157;27321;-83
2022/01/26 02:07:55;;;;;;;16.03;11.30;;;6.20;86.30;;;;;;893971;158;27492;-79
2022/01/26 02:10:23;;;;;;;15.33;10.07;;;6.10;86.30;;;;;;895581;155;27446;-79
2022/01/26 02:12:52;;;;;;;15.90;11.17;;;6.20;86.40;;;;;;894340;158;27523;-81
2022/01/26 02:15:21;;;;;;;17.23;10.50;;;6.20;86.40;;;;;;894042;158;27918;-83
2022/01/26 02:50:52;;;;;;;10.87;8.03;;;6.20;85.90;;;;;;884606;156;27427;-80
2022/01/26 02:55:37;;;;;;;14.07;8.10;;;6.10;85.80;;;;;;885594;160;27550;-82
2022/01/26 03:03:20;;;;;;;12.17;8.30;;;6.20;85.70;;;;;;885686;160;27441;-82
2022/01/26 03:05:51;;;;;;;12.37;7.93;;;6.20;85.60;;;;;;885337;160;27424;-79
2022/01/26 03:08:08;;;;;;;12.93;8.37;;;6.20;85.60;;;;;;884577;160;27473;-80
2022/01/26 03:10:47;;;;;;;12.47;8.07;;;6.20;85.70;;;;;;885485;160;27417;-81
2022/01/26 03:13:10;;;;;;;9.93;7.00;;;6.20;85.70;;;;;;884940;159;27403;-74
2022/01/26 03:15:37;;;;;;;12.33;8.33;;;6.20;85.60;;;;;;886059;160;27479;-76
2022/01/26 03:20:44;;;;;;;11.40;8.57;;;6.20;84.90;;;;;;886387;160;27422;-82
2022/01/26 03:28:45;;;;;;;12.63;8.83;;;6.10;85.60;;;;;;886186;159;27443;-75
2022/01/26 03:31:39;;;;;;;13.90;8.93;;;6.10;85.70;;;;;;883522;160;27409;-83
2022/01/26 03:36:14;;;;;;;15.90;9.23;;;6.10;86.00;;;;;;885379;159;27392;-73
2022/01/26 03:38:47;;;;;;;16.97;9.63;;;6.10;86.00;;;;;;887319;159;27439;-73
2022/01/26 03:41:29;;;;;;;14.33;9.00;;;6.10;86.00;;;;;;885333;158;27392;-74
2022/01/26 03:43:38;;;;;;;15.33;10.20;;;6.10;86.00;;;;;;892212;158;27396;-74
2022/01/26 03:46:05;;;;;;;14.57;9.13;;;6.00;86.00;;;;;;895144;158;27475;-73
2022/01/26 03:48:31;;;;;;;14.00;9.40;;;6.00;86.00;;;;;;895258;158;27343;-72
2022/01/26 03:51:00;;;;;;;14.57;9.53;;;6.00;86.10;;;;;;894193;157;27433;-76
2022/01/26 03:53:27;;;;;;;13.80;10.00;;;5.90;86.00;;;;;;895483;158;27890;-71
2022/01/26 03:55:53;;;;;;;13.20;8.53;;;5.90;86.30;;;;;;894623;158;27397;-71
2022/01/26 03:58:20;;;;;;;13.70;9.10;;;5.90;86.30;;;;;;893681;158;27497;-71
2022/01/26 04:00:47;;;;;;;12.50;8.50;;;5.80;86.50;;;;;;895524;157;27377;-72
2022/01/26 04:03:13;;;;;;;15.90;9.37;;;5.80;86.60;;;;;;894755;157;27420;-73
2022/01/26 04:05:40;;;;;;;12.87;8.77;;;5.80;86.70;;;;;;897289;157;27425;-72
2022/01/26 04:08:16;;;;;;;11.43;8.17;;;5.80;86.90;;;;;;901191;157;27483;-71
2022/01/26 04:13:18;;;;;;;9.30;7.27;;;5.70;87.20;;;;;;905117;157;27481;-71
2022/01/26 04:15:44;;;;;;;12.23;8.13;;;5.70;87.80;;;;;;901387;157;27525;-72
2022/01/26 04:18:16;;;;;;;10.07;7.30;;;5.70;87.40;;;;;;903846;157;27431;-71
2022/01/26 04:20:42;;;;;;;11.50;7.93;;;5.70;87.40;;;;;;902529;157;27527;-71
2022/01/26 04:23:20;;;;;;;12.63;7.47;;;5.70;87.50;;;;;;903562;157;27351;-71
2022/01/26 04:25:42;;;;;;;11.17;7.80;;;5.70;87.50;;;;;;887678;159;27417;-71
2022/01/26 04:28:11;;;;;;;13.13;7.90;;;5.60;87.40;;;;;;904961;157;27402;-72
2022/01/26 04:30:33;;;;;;;12.10;7.17;;;5.60;87.50;;;;;;903506;157;27485;-72
2022/01/26 04:33:03;;;;;;;9.77;7.30;;;5.60;87.50;;;;;;903194;156;28591;-71
2022/01/26 04:35:26;;;;;;;10.57;7.50;;;5.60;87.70;;;;;;904470;157;27337;-71
2022/01/26 04:40:44;;;;;;;11.37;7.50;;;5.60;87.50;;;;;;889204;159;27826;-72
2022/01/26 04:43:12;;;;;;;10.40;6.37;;;5.60;87.50;;;;;;889438;158;27482;-73
2022/01/26 04:45:31;;;;;;;11.33;7.50;;;5.60;87.50;;;;;;887340;160;27500;-71
2022/01/26 04:47:57;;;;;;;12.67;7.93;;;5.50;87.60;;;;;;885973;159;27373;-71
2022/01/26 04:50:24;;;;;;;11.30;6.90;;;5.50;86.90;;;;;;885572;160;27367;-71
2022/01/26 04:52:51;;;;;;;11.53;7.50;;;5.50;87.60;;;;;;885453;160;27382;-71
2022/01/26 04:55:17;;;;;;;11.63;7.83;;;5.50;87.80;;;;;;886502;160;27372;-72
2022/01/26 04:57:44;;;;;;;10.77;7.67;;;5.50;87.80;;;;;;885885;160;27520;-72
2022/01/26 05:00:10;;;;;;;8.80;7.17;;;5.50;88.00;;;;;;885435;159;27510;-72
2022/01/26 05:02:37;;;;;;;10.53;7.60;;;5.50;88.00;;;;;;885280;159;27477;-71
2022/01/26 05:05:37;;;;;;;11.53;8.03;;;5.50;88.10;;;;;;885480;156;27910;-72
2022/01/26 05:08:04;;;;;;;11.67;7.23;;;5.50;88.20;;;;;;884555;159;27404;-73
2022/01/26 05:10:30;;;;;;;11.20;7.80;;;5.50;88.20;;;;;;883969;160;27542;-74
2022/01/26 05:12:57;;;;;;;10.17;7.40;;;5.40;88.20;;;;;;888219;160;27403;-73
2022/01/26 05:15:25;;;;;;;10.17;7.33;;;5.40;88.30;;;;;;887606;160;27486;-73
2022/01/26 05:17:50;;;;;;;11.70;8.20;;;5.40;88.50;;;;;;885089;160;27735;-72
2022/01/26 05:20:17;;;;;;;11.43;7.73;;;5.40;88.60;;;;;;884825;160;27776;-72
2022/01/26 05:22:44;;;;;;;11.87;8.07;;;5.40;88.80;;;;;;886260;159;27384;-73
2022/01/26 05:25:10;;;;;;;10.97;8.40;;;5.40;88.80;;;;;;886399;160;27465;-73
2022/01/26 05:27:37;;;;;;;16.67;8.03;;;5.40;88.90;;;;;;886290;160;27532;-73
2022/01/26 05:30:03;;;;;;;12.87;8.57;;;5.40;88.90;;;;;;888094;159;27383;-72
2022/01/26 05:32:30;;;;;;;13.80;8.07;;;5.40;89.00;;;;;;886513;160;27427;-73
2022/01/26 05:34:56;;;;;;;15.73;8.93;;;5.50;89.10;;;;;;885573;160;27412;-73
2022/01/26 05:37:23;;;;;;;10.93;8.33;;;5.40;88.80;;;;;;885121;159;27471;-74
2022/01/26 05:39:49;;;;;;;12.33;8.93;;;5.50;89.00;;;;;;885642;158;27573;-73
2022/01/26 05:42:17;;;;;;;14.77;9.00;;;5.40;89.00;;;;;;885936;160;27430;-73
2022/01/26 05:44:43;;;;;;;12.03;9.00;;;5.40;89.40;;;;;;887045;158;27365;-73
2022/01/26 05:47:14;;;;;;;13.07;8.97;;;5.40;89.10;;;;;;888999;156;27539;-74
2022/01/26 05:49:36;;;;;;;13.83;9.13;;;5.40;89.20;;;;;;884808;159;27424;-73
2022/01/26 05:52:02;;;;;;;13.80;8.97;;;5.40;89.20;;;;;;887133;159;27480;-74
2022/01/26 05:54:29;;;;;;;14.40;9.07;;;5.40;89.20;;;;;;885895;159;27436;-73
2022/01/26 05:56:56;;;;;;;13.23;8.70;;;5.40;89.10;;;;;;886649;160;28539;-73
2022/01/26 05:59:22;;;;;;;14.10;8.73;;;5.40;89.00;;;;;;886442;160;27432;-73
2022/01/26 06:01:49;;;;;;;15.53;8.87;;;5.30;89.00;;;;;;885956;160;27411;-73
2022/01/26 06:04:15;;;;;;;15.57;8.93;;;5.30;89.10;;;;;;888531;160;27438;-74
2022/01/26 06:06:42;;;;;;;15.77;9.10;;;5.30;89.40;;;;;;887113;160;27447;-73
2022/01/26 06:09:08;;;;;;;14.83;9.30;;;5.30;89.60;;;;;;886619;160;27519;-73
2022/01/26 06:11:35;;;;;;;12.03;7.87;;;5.30;89.80;;;;;;886816;160;27376;-73
2022/01/26 06:14:02;;;;;;;14.60;9.20;;;5.30;90.00;;;;;;887014;160;27340;-73
2022/01/26 06:16:28;;;;;;;16.67;9.33;;;5.30;90.10;;;;;;885176;160;27508;-73
2022/01/26 06:18:55;;;;;;;14.13;9.37;;;5.30;90.20;;;;;;886258;160;27517;-74
2022/01/26 06:21:21;;;;;;;13.67;9.23;;;5.30;90.10;;;;;;886145;157;27898;-73
2022/01/26 06:23:48;;;;;;;15.83;9.10;;;5.40;90.20;;;;;;887227;160;27806;-73
2022/01/26 06:26:15;;;;;;;14.57;9.47;;;5.40;90.10;;;;;;886648;159;27531;-73
2022/01/26 06:28:41;;;;;;;16.30;9.33;;;5.40;90.10;;;;;;885567;160;27374;-73
2022/01/26 06:31:14;;;;;;;15.53;9.50;;;5.40;90.10;;;;;;885586;159;27364;-73
2022/01/26 06:33:35;;;;;;;12.83;9.20;;;5.40;90.10;;;;;;886592;160;27407;-73
2022/01/26 06:36:01;;;;;;;11.97;8.40;;;5.40;90.10;;;;;;886112;160;27908;-73
2022/01/26 06:38:30;;;;;;;12.67;8.40;;;5.50;90.10;;;;;;887759;160;27967;-73
2022/01/26 06:40:57;;;;;;;14.07;8.37;;;5.50;90.20;;;;;;885591;156;27384;-73
2022/01/26 06:43:26;;;;;;;13.07;8.57;;;5.50;90.20;;;;;;883887;159;27502;-73
2022/01/26 06:45:56;;;;;;;12.33;8.87;;;5.50;90.10;;;;;;884633;160;27520;-73
2022/01/26 06:51:02;;;;;;;13.80;8.37;;;5.50;90.00;;;;;;873348;162;27910;-72
2022/01/26 06:53:28;;;;;;;12.93;8.00;;;5.60;89.90;;;;;;873480;160;27476;-73
2022/01/26 06:55:56;;;;;;;11.93;7.63;;;5.50;89.90;;;;;;875309;159;27392;-73
2022/01/26 06:58:22;;;;;;;13.27;8.83;;;5.60;90.30;;;;;;889246;159;27507;-73
2022/01/26 07:00:48;;;;;;;15.93;9.00;;;5.60;90.00;;;;;;872808;161;27588;-72
2022/01/26 07:03:15;;;;;;;13.47;8.10;;;5.60;90.00;;;;;;874899;162;27465;-73
2022/01/26 07:05:42;;;;;;;13.43;8.40;;;5.60;90.10;;;;;;876187;162;27274;-73
2022/01/26 07:08:08;;;;;;;12.90;8.87;;;5.60;90.10;;;;;;888753;159;27531;-72
2022/01/26 07:10:35;;;;;;;14.23;8.53;;;5.60;90.10;;;;;;873455;162;27438;-73
2022/01/26 07:13:02;;;;;;;11.23;8.43;;;5.60;90.10;;;;;;891756;159;27528;-73
2022/01/26 07:23:27;;;;;;;15.87;8.87;;;5.70;90.00;;;;;;874825;162;27555;-71
2022/01/26 07:25:53;;;;;;;10.67;7.47;;;5.70;90.00;;;;;;884452;160;27545;-71
2022/01/26 07:28:20;;;;;;;13.57;9.07;;;5.70;90.00;;;;;;886063;160;27505;-72
2022/01/26 07:30:46;;;;;;;14.73;8.53;;;5.70;90.00;;;;;;885466;160;27836;-71
2022/01/26 07:33:13;;;;;;;13.23;9.07;;;5.70;90.00;;;;;;885065;160;27590;-71
2022/01/26 07:35:40;;;;;;;11.80;8.23;;;5.80;90.00;;;;;;883160;160;27477;-71
2022/01/26 07:38:06;;;;;;;13.83;9.07;;;5.80;89.90;;;;;;884635;160;27453;-71
2022/01/26 07:40:33;;;;;;;10.83;8.03;;;5.80;90.00;;;;;;888894;156;27487;-72
2022/01/26 07:42:59;;;;;;;12.13;8.07;;;5.80;90.00;;;;;;885837;159;27468;-71
2022/01/26 07:45:26;;;;;;;11.73;7.43;;;5.80;90.00;;;;;;891436;157;27369;-71
2022/01/26 07:47:55;;;;;;;10.80;7.03;;;5.80;90.00;;;;;;893819;158;27421;-72
2022/01/26 07:50:20;;;;;;;8.30;6.80;;;5.80;89.90;;;;;;894588;158;27351;-72
2022/01/26 07:52:46;;;;;;;8.00;6.37;;;5.80;89.70;;;;;;892479;158;27511;-72
2022/01/26 07:55:15;;;;;;;10.00;6.77;;;5.80;89.70;;;;;;895971;158;27412;-71
2022/01/26 07:57:39;;;;;;;8.60;7.10;;;5.80;89.60;;;;;;895334;158;27422;-71
2022/01/26 08:00:06;;;;;;;8.47;6.20;;;5.80;89.60;;;;;;894687;157;27500;-71
2022/01/26 08:02:32;;;;;;;7.93;5.87;;;5.70;89.30;;;;;;895671;158;27353;-71
2022/01/26 08:04:59;;;;;;;9.97;6.00;;;5.70;89.20;;;;;;895230;158;27816;-71
2022/01/26 08:07:26;;;;;;;10.37;6.67;;;5.60;89.20;;;;;;894113;158;27420;-72
2022/01/26 08:09:52;;;;;;;9.20;6.40;;;5.60;89.50;;;;;;894984;157;27527;-71
2022/01/26 08:12:19;;;;;;;11.97;6.43;;;5.50;89.50;;;;;;898047;158;27409;-72
2022/01/26 08:14:45;;;;;;;8.50;6.27;;;5.50;89.80;;;;;;896047;156;27451;-71
2022/01/26 08:17:14;;;;;;;8.33;6.17;;;5.50;90.00;;;;;;893469;157;27407;-72
2022/01/26 08:19:38;;;;;;;8.73;6.47;;;5.50;90.20;;;;;;895634;158;27389;-72
2022/01/26 08:22:05;;;;;;;8.00;6.57;;;5.50;90.20;;;;;;893308;158;27428;-71
2022/01/26 08:24:31;;;;;;;8.23;5.73;;;5.50;90.30;;;;;;893979;158;27418;-71
2022/01/26 08:27:02;;;;;;;7.90;5.93;;;5.50;90.30;;;;;;894810;158;27479;-72
2022/01/26 08:29:32;;;;;;;8.50;5.80;;;5.40;90.30;;;;;;895734;158;27396;-72
2022/01/26 08:31:54;;;;;;;8.70;6.13;;;5.40;90.40;;;;;;894605;158;27427;-72
2022/01/26 08:34:20;;;;;;;8.43;5.77;;;5.50;90.60;;;;;;894776;158;27507;-71
2022/01/26 08:36:48;;;;;;;6.90;5.67;;;5.50;90.70;;;;;;895349;157;27404;-71
2022/01/26 08:39:14;;;;;;;9.47;6.50;;;5.50;90.60;;;;;;895725;158;27479;-71
2022/01/26 08:41:40;;;;;;;8.37;6.10;;;5.50;90.50;;;;;;895269;158;27405;-71
2022/01/26 08:44:07;;;;;;;8.63;5.77;;;5.50;90.80;;;;;;895642;158;27369;-72
2022/01/26 08:46:33;;;;;;;6.53;5.83;;;5.50;90.40;;;;;;887397;158;27568;-71
2022/01/26 08:49:00;;;;;;;8.93;5.80;;;5.50;90.40;;;;;;886305;159;27424;-71
2022/01/26 08:51:27;;;;;;;7.20;5.63;;;5.50;90.40;;;;;;886777;159;27997;-71
2022/01/26 08:53:53;;;;;;;7.80;5.50;;;5.50;90.50;;;;;;884071;160;27404;-71
2022/01/26 08:56:20;;;;;;;6.47;5.27;;;5.50;90.50;;;;;;885634;160;27363;-73
2022/01/26 08:58:46;;;;;;;7.37;5.90;;;5.50;90.50;;;;;;884870;160;27561;-73
2022/01/26 09:01:13;;;;;;;6.33;5.50;;;5.50;90.50;;;;;;884711;159;27545;-73
2022/01/26 09:03:39;;;;;;;7.37;5.90;;;5.60;90.60;;;;;;885458;160;27404;-72
2022/01/26 09:06:06;;;;;;;6.97;5.53;;;5.60;90.60;;;;;;886604;160;27363;-71
2022/01/26 09:08:33;;;;;;;7.10;5.53;;;5.60;90.50;;;;;;885865;160;27360;-71
2022/01/26 09:11:01;;;;;;;6.77;5.93;;;5.60;90.50;;;;;;886691;159;27374;-72
2022/01/26 09:13:26;;;;;;;7.47;4.80;;;5.60;90.50;;;;;;887171;159;27422;-71
2022/01/26 09:15:53;;;;;;;7.57;4.87;;;5.60;90.50;;;;;;886983;160;27478;-71
2022/01/26 09:18:30;;;;;;;6.43;5.00;;;5.60;90.50;;;;;;885670;160;27321;-71
2022/01/26 09:20:46;;;;;;;5.97;4.90;;;5.60;90.50;;;;;;883851;159;27391;-72
2022/01/26 09:23:12;;;;;;;6.67;5.13;;;5.60;90.50;;;;;;887061;160;27378;-72
2022/01/26 09:25:39;;;;;;;5.73;4.97;;;5.70;90.60;;;;;;887628;160;27399;-71
2022/01/26 09:28:05;;;;;;;6.77;5.57;;;5.70;90.60;;;;;;885980;160;27391;-71
2022/01/26 09:30:32;;;;;;;7.13;4.77;;;5.70;90.60;;;;;;884761;159;27651;-72
2022/01/26 09:32:58;;;;;;;8.03;5.40;;;5.70;90.60;;;;;;885673;160;27404;-71
2022/01/26 09:35:25;;;;;;;6.20;4.70;;;5.70;90.70;;;;;;887121;159;27370;-72
2022/01/26 09:37:52;;;;;;;7.03;5.50;;;5.70;90.60;;;;;;887565;159;27442;-71
2022/01/26 09:40:18;;;;;;;6.90;5.33;;;5.70;90.60;;;;;;886739;159;27384;-71
2022/01/26 09:42:46;;;;;;;8.07;5.60;;;5.80;90.70;;;;;;886715;157;27401;-71
2022/01/26 09:45:11;;;;;;;9.00;5.33;;;5.80;90.70;;;;;;887276;160;27363;-71
2022/01/26 09:47:38;;;;;;;8.47;6.23;;;5.90;90.70;;;;;;893092;158;27477;-72
2022/01/26 09:50:05;;;;;;;7.03;6.13;;;5.90;90.70;;;;;;892440;158;27984;-72
2022/01/26 09:52:37;;;;;;;6.97;6.03;;;5.90;90.60;;;;;;891915;158;27430;-71
2022/01/26 09:55:00;;;;;;;7.00;5.63;;;6.00;90.60;;;;;;891196;159;27327;-71
2022/01/26 09:57:27;;;;;;;8.37;6.73;;;6.00;90.60;;;;;;891446;158;27468;-71
2022/01/26 09:59:53;;;;;;;8.33;6.00;;;6.00;90.60;;;;;;892503;158;27354;-73
2022/01/26 10:02:20;;;;;;;7.50;6.40;;;6.10;90.50;;;;;;893614;159;27537;-71
2022/01/26 10:04:47;;;;;;;8.10;6.63;;;6.10;90.50;;;;;;891576;159;27937;-71
2022/01/26 10:09:55;;;;;;;9.33;6.40;;;6.20;90.50;;;;;;891504;159;27481;-72
2022/01/26 10:17:43;;;;;;;7.37;6.47;;;6.30;90.40;;;;;;891872;159;27511;-71
2022/01/26 10:20:09;;;;;;;7.90;6.27;;;6.30;90.50;;;;;;891761;158;27419;-72
2022/01/26 10:22:35;;;;;;;9.10;6.60;;;6.40;90.20;;;;;;891448;159;27484;-72
2022/01/26 10:25:04;;;;;;;7.93;6.47;;;6.40;90.10;;;;;;892622;159;27373;-73
2022/01/26 10:27:46;;;;;;;8.23;6.57;;;6.40;90.10;;;;;;889330;159;27427;-71
2022/01/26 10:30:13;;;;;;;9.20;6.80;;;6.40;90.10;;;;;;890737;159;27422;-71
2022/01/26 10:32:39;;;;;;;8.87;6.80;;;6.40;90.00;;;;;;888934;159;27450;-71
2022/01/26 10:35:06;;;;;;;12.13;7.43;;;6.40;90.10;;;;;;892982;159;27358;-72
2022/01/26 10:37:32;;;;;;;9.53;6.80;;;6.40;90.00;;;;;;890847;158;27403;-73
2022/01/26 10:40:10;;;;;;;10.80;8.37;;;6.40;90.00;;;;;;891102;159;27396;-71
2022/01/26 10:42:35;;;;;;;8.57;7.37;;;6.40;89.80;;;;;;891752;159;27550;-72
2022/01/26 10:47:38;;;;;;;7.40;6.23;;;6.50;89.60;;;;;;889870;158;27441;-71
2022/01/26 10:50:31;;;;;;;8.90;6.77;;;6.50;89.60;;;;;;888771;158;27477;-70
2022/01/26 10:52:37;;;;;;;7.37;6.60;;;6.50;89.60;;;;;;889189;159;27560;-71
2022/01/26 10:55:02;;;;;;;8.17;6.50;;;6.50;89.50;;;;;;892812;158;27471;-73
2022/01/26 10:57:29;;;;;;;7.37;6.60;;;6.50;89.40;;;;;;893068;158;27394;-72
2022/01/26 10:59:55;;;;;;;7.27;6.20;;;6.50;89.30;;;;;;891060;159;27383;-72
2022/01/26 11:02:28;;;;;;;7.83;6.83;;;6.50;89.10;;;;;;891538;159;27446;-73
2022/01/26 11:04:51;;;;;;;7.83;6.43;;;6.50;89.00;;;;;;892214;159;27420;-72
2022/01/26 11:07:18;;;;;;;7.37;6.40;;;6.50;88.80;;;;;;890824;159;27376;-72
2022/01/26 11:09:44;;;;;;;7.03;6.33;;;6.50;88.70;;;;;;891172;158;27402;-71
2022/01/26 11:12:11;;;;;;;7.57;6.37;;;6.50;88.50;;;;;;892591;159;27489;-71
2022/01/26 11:14:38;;;;;;;8.17;6.50;;;6.50;88.40;;;;;;891206;156;27556;-72
2022/01/26 11:17:04;;;;;;;6.80;6.10;;;6.50;88.20;;;;;;888263;159;27425;-71
2022/01/26 11:19:40;;;;;;;8.23;6.37;;;6.50;88.20;;;;;;891113;159;27850;-71
2022/01/26 11:22:06;;;;;;;8.47;6.90;;;6.50;88.20;;;;;;891313;159;27368;-71
2022/01/26 11:24:33;;;;;;;6.80;6.10;;;6.40;88.10;;;;;;891684;158;27415;-71
2022/01/26 11:27:02;;;;;;;6.40;5.80;;;6.40;88.10;;;;;;888809;159;27500;-72
2022/01/26 11:29:32;;;;;;;7.17;6.47;;;6.40;88.10;;;;;;889652;158;27561;-70
2022/01/26 11:32:25;;;;;;;7.03;5.80;;;6.40;87.90;;;;;;892612;158;27919;-71
2022/01/26 11:34:46;;;;;;;6.97;5.83;;;6.40;88.70;;;;;;889003;159;27459;-71
2022/01/26 11:37:18;;;;;;;7.13;5.63;;;6.40;88.00;;;;;;890485;159;27395;-71
2022/01/26 11:45:07;;;;;;;6.73;6.03;;;6.40;88.30;;;;;;892463;159;27771;-71
2022/01/26 11:47:32;;;;;;;7.37;6.20;;;6.40;88.30;;;;;;886807;155;27420;-72
2022/01/26 11:50:10;;;;;;;6.47;5.77;;;6.30;88.20;;;;;;885680;160;27528;-72
2022/01/26 11:52:38;;;;;;;8.17;6.33;;;6.30;88.20;;;;;;885147;160;27422;-71
2022/01/26 11:55:09;;;;;;;6.73;6.03;;;6.40;88.20;;;;;;885260;159;27499;-72
2022/01/26 11:57:39;;;;;;;8.60;6.80;;;6.40;88.20;;;;;;884421;160;27362;-72
2022/01/26 12:00:08;;;;;;;8.53;6.20;;;6.40;88.00;;;;;;885639;159;27372;-70
2022/01/26 12:02:49;;;;;;;8.47;6.37;;;6.40;88.10;;;;;;887996;160;27488;-72
2022/01/26 12:05:02;;;;;;;6.07;5.50;;;6.40;88.00;;;;;;886574;160;27430;-71
2022/01/26 12:07:28;;;;;;;7.10;5.87;;;6.40;87.90;;;;;;888338;156;27427;-70
2022/01/26 12:09:56;;;;;;;9.47;6.43;;;6.40;87.80;;;;;;883543;160;27494;-70
2022/01/26 12:12:22;;;;;;;9.57;6.83;;;6.30;87.80;;;;;;886311;160;27489;-70
2022/01/26 12:15:07;;;;;;;8.50;6.53;;;6.30;87.80;;;;;;884998;159;27448;-70
2022/01/26 12:17:38;;;;;;;6.37;5.73;;;6.30;88.00;;;;;;885805;160;27480;-73
2022/01/26 12:32:02;;;;;;;8.10;6.20;;;6.30;87.90;;;;;;885873;159;27627;-72
2022/01/26 12:36:34;;;;;;;8.10;5.63;;;6.30;87.30;;;;;;885266;160;27415;-71
2022/01/26 12:38:56;;;;;;;6.13;5.53;;;6.20;87.30;;;;;;885248;160;27451;-70
2022/01/26 12:41:34;;;;;;;11.13;6.27;;;6.20;87.30;;;;;;885747;160;27416;-71
2022/01/26 12:44:07;;;;;;;6.10;5.07;;;6.20;87.30;;;;;;885436;160;27484;-72
2022/01/26 12:46:34;;;;;;;5.40;4.90;;;6.20;87.50;;;;;;885839;160;28017;-70
2022/01/26 12:49:00;;;;;;;7.63;5.90;;;6.20;87.50;;;;;;887182;156;27459;-71
2022/01/26 12:51:27;;;;;;;7.07;5.60;;;6.20;87.50;;;;;;883043;160;27410;-71
2022/01/26 12:54:00;;;;;;;5.57;5.07;;;6.20;87.40;;;;;;885329;158;27972;-71
2022/01/26 12:56:29;;;;;;;6.77;5.83;;;6.20;87.50;;;;;;884234;158;27376;-71
2022/01/26 12:58:58;;;;;;;7.07;5.87;;;6.20;87.50;;;;;;888280;160;27390;-70
2022/01/26 13:01:25;;;;;;;8.67;6.40;;;6.20;87.60;;;;;;885531;160;27406;-71
2022/01/26 13:03:51;;;;;;;6.97;5.67;;;6.20;87.60;;;;;;886028;160;27446;-71
2022/01/26 13:06:23;;;;;;;7.27;6.43;;;6.10;87.70;;;;;;886803;160;27388;-71
2022/01/26 13:08:53;;;;;;;7.10;5.43;;;6.20;87.70;;;;;;884408;160;27514;-72
2022/01/26 13:11:31;;;;;;;8.07;6.40;;;6.20;87.70;;;;;;882355;160;27427;-71
2022/01/26 13:14:15;;;;;;;5.77;4.93;;;6.20;87.80;;;;;;885475;160;27394;-71
2022/01/26 13:16:46;;;;;;;6.57;5.20;;;6.20;87.80;;;;;;888047;160;27442;-71
2022/01/26 13:19:30;;;;;;;6.63;5.87;;;6.20;87.90;;;;;;886195;160;27960;-72
2022/01/26 13:24:48;;;;;;;8.37;5.87;;;6.30;87.90;;;;;;885239;160;27363;-71
2022/01/26 13:27:12;;;;;;;5.90;5.30;;;6.20;87.70;;;;;;882704;160;27435;-71
2022/01/26 13:30:04;;;;;;;6.63;5.80;;;6.30;87.70;;;;;;885917;160;27444;-70
2022/01/26 13:32:19;;;;;;;6.33;5.70;;;6.30;87.50;;;;;;882508;160;27506;-72
2022/01/26 13:35:07;;;;;;;6.57;5.43;;;6.20;87.20;;;;;;884965;160;27370;-73
2022/01/26 13:37:30;;;;;;;6.83;5.23;;;6.20;87.10;;;;;;883287;160;27553;-70
2022/01/26 13:39:55;;;;;;;6.23;5.63;;;6.20;87.00;;;;;;886252;160;28841;-71
2022/01/26 13:45:46;;;;;;;6.47;5.27;;;6.20;87.00;;;;;;886696;159;27403;-72
2022/01/26 13:48:15;;;;;;;7.47;5.77;;;6.20;86.90;;;;;;884532;160;27433;-72
2022/01/26 13:50:35;;;;;;;6.33;5.20;;;6.10;86.90;;;;;;891740;158;27788;-72
2022/01/26 13:53:08;;;;;;;7.20;6.00;;;6.10;87.00;;;;;;894560;158;27588;-72
2022/01/26 14:00:47;;;;;;;8.03;5.70;;;6.10;87.10;;;;;;894630;158;27449;-71
2022/01/26 14:03:03;;;;;;;7.63;6.17;;;6.10;87.10;;;;;;893281;158;27396;-71
2022/01/26 14:05:26;;;;;;;7.27;6.50;;;6.10;87.10;;;;;;894273;158;28413;-71
2022/01/26 14:07:56;;;;;;;6.17;5.37;;;6.10;87.20;;;;;;896283;158;27467;-72
2022/01/26 14:10:20;;;;;;;6.83;5.73;;;6.10;87.10;;;;;;894255;158;28175;-71
2022/01/26 14:12:48;;;;;;;8.03;5.87;;;6.10;87.30;;;;;;894344;158;27492;-72
2022/01/26 14:15:18;;;;;;;6.83;4.93;;;6.10;87.20;;;;;;895862;156;27526;-71
2022/01/26 14:17:56;;;;;;;5.67;5.13;;;6.20;87.30;;;;;;894936;158;27421;-71
2022/01/26 14:27:52;;;;;;;7.00;5.43;;;6.10;87.50;;;;;;893559;158;27495;-71
2022/01/26 14:30:27;;;;;;;7.47;5.60;;;6.10;87.60;;;;;;894137;158;27378;-71
2022/01/26 14:33:03;;;;;;;5.97;5.30;;;6.10;87.60;;;;;;894394;158;27329;-71
2022/01/26 14:35:29;;;;;;;5.73;5.13;;;6.10;87.70;;;;;;892419;158;27405;-71
2022/01/26 15:12:25;;;;;;;8.33;6.43;;;6.00;87.60;;;;;;894601;157;27499;-71
2022/01/26 15:29:56;;;;;;;8.87;6.50;;;6.00;87.60;;;;;;894275;158;27877;-71
2022/01/26 15:33:27;;;;;;;8.17;6.70;;;6.00;87.60;;;;;;895416;158;27472;-72
2022/01/26 15:40:00;;;;;;;8.77;6.67;;;5.90;87.50;;;;;;893638;158;27544;-71
2022/01/26 15:43:47;;;;;;;9.67;7.03;;;5.90;87.40;;;;;;874721;158;27982;-71
2022/01/26 15:49:07;;;;;;;6.60;5.90;;;5.90;87.10;;;;;;895503;158;27413;-71
2022/01/26 15:51:50;;;;;;;9.17;6.43;;;5.90;87.10;;;;;;893611;158;27506;-71
2022/01/26 16:07:56;;;;;;;6.93;5.67;;;5.70;87.40;;;;;;893895;158;27486;-72
2022/01/26 16:16:48;;;;;;;6.47;5.67;;;5.70;87.50;;;;;;894533;158;27598;-71
2022/01/26 16:26:29;;;;;;;8.23;6.37;;;5.60;87.60;;;;;;894035;158;27493;-71
2022/01/26 17:11:10;;;;;;;10.47;7.53;;;5.60;88.10;;;;;;895254;158;27441;-73
2022/01/26 17:25:11;;;;;;;10.30;8.67;;;5.60;88.20;;;;;;896015;158;27532;-72
2022/01/26 17:43:28;;;;;;;10.63;8.10;;;5.50;88.20;;;;;;895327;158;28836;-71
2022/01/26 18:13:08;;;;;;;11.10;8.50;;;5.60;88.50;;;;;;894179;158;27578;-71